Terminal Aerodrome Forecast
Issued by NWS El Paso, TX

Home | Current Version | Previous Version | Text Only | Print | Product List | Glossary On
Versions: 1 2 3 4 5 6 7 8 9 10 11 12 13 14
000
FTUS44 KEPZ 302300
TAFELP
TAF
KELP 302320Z 0100/0124 25012G20KT P6SM SCT070
     FM010200 27010KT P6SM SKC
     FM011800 25015G25KT P6SM SKC=

USA.gov is the U.S. government's official web portal to all federal, state and local government web resources and services.